createdAt,value
2023-08-08T00:01:12.143Z,98422.41
2023-08-08T00:03:38.949Z,98414.75
2023-08-08T00:06:05.660Z,98415.97
2023-08-08T00:08:32.454Z,98424.28
2023-08-08T00:10:59.381Z,98420.81
2023-08-08T00:13:26.182Z,98414.44
2023-08-08T00:15:52.896Z,98417.91
2023-08-08T00:18:19.660Z,98414.25
2023-08-08T00:20:46.389Z,98417.28
2023-08-08T00:23:13.196Z,98417.28
2023-08-08T00:25:39.821Z,98411.25
2023-08-08T00:28:06.899Z,98415.47
2023-08-08T00:30:33.687Z,98413.41
2023-08-08T00:33:00.864Z,98408.22
2023-08-08T00:35:27.568Z,98409.16
2023-08-08T00:37:54.246Z,98399.56
2023-08-08T00:40:20.970Z,98401.53
2023-08-08T00:42:47.618Z,98399.00
2023-08-08T00:45:14.368Z,98400.50
2023-08-08T00:47:41.295Z,98392.84
2023-08-08T00:50:09.617Z,98396.72
2023-08-08T00:52:38.563Z,98396.28
2023-08-08T00:55:06.525Z,98390.78
2023-08-08T00:57:33.709Z,98387.31
2023-08-08T01:00:00.513Z,98393.19
2023-08-08T01:02:27.241Z,98392.22
2023-08-08T01:04:54.099Z,98393.31
2023-08-08T01:07:47.323Z,98383.16
2023-08-08T01:10:21.567Z,98383.16
2023-08-08T01:13:05.547Z,98383.69
2023-08-08T01:15:36.782Z,98381.63
2023-08-08T01:18:09.439Z,98383.94
2023-08-08T01:20:38.414Z,98385.59
2023-08-08T01:23:18.735Z,98385.16
2023-08-08T01:25:47.465Z,98373.72
2023-08-08T01:28:14.349Z,98381.16
2023-08-08T01:30:41.348Z,98374.31
2023-08-08T01:33:08.965Z,98379.13
2023-08-08T01:35:43.496Z,98376.84
2023-08-08T01:38:18.452Z,98379.03
2023-08-08T01:40:46.518Z,98373.81
2023-08-08T01:43:16.354Z,98378.16
2023-08-08T01:45:44.731Z,98382.56
2023-08-08T01:48:12.306Z,98385.59
2023-08-08T01:50:39.494Z,98385.94
2023-08-08T01:53:06.394Z,98376.78
2023-08-08T01:55:33.157Z,98380.06
2023-08-08T01:57:59.835Z,98369.22
2023-08-08T02:00:26.680Z,98372.47
2023-08-08T02:02:54.028Z,98372.19
2023-08-08T02:05:21.017Z,98371.25
2023-08-08T02:07:47.641Z,98363.16
2023-08-08T02:10:14.374Z,98370.66
2023-08-08T02:12:41.116Z,98360.56
2023-08-08T02:15:08.223Z,98354.53
2023-08-08T02:17:34.977Z,98358.44
2023-08-08T02:20:01.742Z,98360.38
2023-08-08T02:22:28.417Z,98357.47
2023-08-08T02:24:55.093Z,98355.91
2023-08-08T02:27:21.708Z,98357.47
2023-08-08T02:29:48.370Z,98356.94
2023-08-08T02:32:15.055Z,98358.66
2023-08-08T02:34:42.257Z,98357.09
2023-08-08T02:37:09.695Z,98358.56
2023-08-08T02:39:36.406Z,98361.19
2023-08-08T02:42:03.242Z,98361.34
2023-08-08T02:44:29.955Z,98358.44
2023-08-08T02:46:56.600Z,98352.56
2023-08-08T02:49:23.255Z,98357.09
2023-08-08T02:51:49.975Z,98351.34
2023-08-08T02:54:16.680Z,98346.66
2023-08-08T02:56:43.346Z,98349.31
2023-08-08T02:59:10.032Z,98341.13
2023-08-08T03:01:40.357Z,98341.63
2023-08-08T03:04:07.583Z,98338.97
2023-08-08T03:06:34.334Z,98340.19
2023-08-08T03:09:01.054Z,98339.81
2023-08-08T03:11:27.700Z,98338.38
2023-08-08T03:13:54.410Z,98335.09
2023-08-08T03:16:21.494Z,98334.97
2023-08-08T03:18:48.363Z,98332.66
2023-08-08T03:21:15.150Z,98329.75
2023-08-08T03:23:41.863Z,98330.69
2023-08-08T03:26:08.552Z,98329.00
2023-08-08T03:28:35.243Z,98338.13
2023-08-08T03:31:03.343Z,98322.25
2023-08-08T03:33:30.290Z,98319.25
2023-08-08T03:35:57.004Z,98321.25
2023-08-08T03:38:23.668Z,98320.84
2023-08-08T03:40:50.440Z,98319.88
2023-08-08T03:43:17.171Z,98321.75
2023-08-08T03:45:45.447Z,98315.50
2023-08-08T03:48:12.192Z,98313.63
2023-08-08T03:50:39.011Z,98313.41
2023-08-08T03:53:05.962Z,98316.69
2023-08-08T03:55:34.410Z,98303.91
2023-08-08T03:58:01.231Z,98305.72
2023-08-08T04:00:27.998Z,98304.53
2023-08-08T04:02:54.775Z,98302.88
2023-08-08T04:05:21.582Z,98302.88
2023-08-08T04:07:48.275Z,98307.69
2023-08-08T04:10:15.059Z,98313.81
2023-08-08T04:12:41.705Z,98313.84
2023-08-08T04:15:09.066Z,98308.47
2023-08-08T04:17:35.849Z,98312.78
2023-08-08T04:20:02.886Z,98304.41
2023-08-08T04:22:29.816Z,98304.41
2023-08-08T04:24:56.522Z,98305.25
2023-08-08T04:27:23.229Z,98305.09
2023-08-08T04:29:49.979Z,98314.44
2023-08-08T04:32:17.077Z,98303.44
2023-08-08T04:34:43.765Z,98317.94
2023-08-08T04:37:10.551Z,98310.16
2023-08-08T04:39:37.175Z,98300.56
2023-08-08T04:42:04.397Z,98306.81
2023-08-08T04:44:31.308Z,98308.72
2023-08-08T04:46:58.798Z,98309.69
2023-08-08T04:49:25.538Z,98311.81
2023-08-08T04:51:52.300Z,98306.53
2023-08-08T04:54:18.988Z,98308.94
2023-08-08T04:56:45.727Z,98307.88
2023-08-08T04:59:12.618Z,98315.81
2023-08-08T05:01:39.421Z,98309.91
2023-08-08T05:04:06.408Z,98304.19
2023-08-08T05:06:33.263Z,98306.44
2023-08-08T05:09:00.028Z,98300.19
2023-08-08T05:11:26.762Z,98300.19
2023-08-08T05:13:53.694Z,98298.59
2023-08-08T05:16:21.720Z,98308.94
2023-08-08T05:18:48.479Z,98300.31
2023-08-08T05:21:15.561Z,98301.16
2023-08-08T05:23:42.797Z,98299.59
2023-08-08T05:26:09.806Z,98289.38
2023-08-08T05:28:36.697Z,98286.84
2023-08-08T05:31:03.991Z,98292.09
2023-08-08T05:33:31.541Z,98299.56
2023-08-08T05:36:00.579Z,98289.44
2023-08-08T05:38:27.418Z,98293.88
2023-08-08T05:40:54.101Z,98295.75
2023-08-08T05:43:22.613Z,98297.41
2023-08-08T05:45:49.398Z,98298.59
2023-08-08T05:48:16.106Z,98297.28
2023-08-08T05:50:42.938Z,98298.94
2023-08-08T05:53:09.660Z,98306.16
2023-08-08T05:55:36.373Z,98306.63
2023-08-08T05:58:03.375Z,98304.78
2023-08-08T06:05:06.378Z,98305.00
2023-08-08T06:07:33.032Z,98306.19
2023-08-08T06:14:43.491Z,98302.06
2023-08-08T06:17:10.685Z,98307.16
2023-08-08T06:19:37.480Z,98304.44
2023-08-08T06:22:04.580Z,98306.56
2023-08-08T06:24:32.944Z,98305.91
2023-08-08T06:27:00.579Z,98306.22
2023-08-08T06:29:27.993Z,98307.13
2023-08-08T06:31:54.784Z,98303.41
2023-08-08T06:34:21.497Z,98310.81
2023-08-08T06:36:48.376Z,98311.44
2023-08-08T06:39:15.195Z,98307.97
2023-08-08T06:41:42.377Z,98311.53
2023-08-08T06:44:09.723Z,98306.81
2023-08-08T06:46:36.467Z,98309.56
2023-08-08T06:49:03.205Z,98305.69
2023-08-08T06:51:29.914Z,98314.06
2023-08-08T06:53:56.955Z,98312.38
2023-08-08T06:56:23.845Z,98310.19
2023-08-08T06:58:50.525Z,98313.00
2023-08-08T07:01:17.498Z,98306.03
2023-08-08T07:03:44.651Z,98307.69
2023-08-08T07:06:11.952Z,98308.56
2023-08-08T07:08:40.478Z,98303.50
2023-08-08T07:11:07.700Z,98302.38
2023-08-08T07:13:34.585Z,98307.72
2023-08-08T07:16:02.073Z,98304.22
2023-08-08T07:18:29.352Z,98302.13
2023-08-08T07:20:57.625Z,98304.38
2023-08-08T07:23:24.817Z,98303.38
2023-08-08T07:25:51.922Z,98300.47
2023-08-08T07:28:19.025Z,98297.38
2023-08-08T07:30:45.872Z,98302.13
2023-08-08T07:33:12.768Z,98306.72
2023-08-08T07:35:39.479Z,98295.31
2023-08-08T07:38:06.317Z,98288.03
2023-08-08T07:40:33.174Z,98288.88
2023-08-08T07:42:59.960Z,98291.25
2023-08-08T07:45:26.752Z,98287.44
2023-08-08T07:47:53.746Z,98276.66
2023-08-08T07:50:20.576Z,98278.59
2023-08-08T07:52:47.308Z,98281.91
2023-08-08T07:55:14.034Z,98283.00
2023-08-08T07:57:40.768Z,98286.88
2023-08-08T08:00:12.644Z,98284.09
2023-08-08T08:02:43.223Z,98280.63
2023-08-08T08:05:10.734Z,98287.72
2023-08-08T08:07:38.958Z,98285.03
2023-08-08T08:10:10.259Z,98280.94
2023-08-08T08:12:38.038Z,98280.31
2023-08-08T08:15:06.056Z,98268.09
2023-08-08T08:17:33.288Z,98279.06
2023-08-08T08:20:00.705Z,98276.38
2023-08-08T08:22:27.683Z,98287.50
2023-08-08T08:24:54.704Z,98276.78
2023-08-08T08:27:21.464Z,98282.94
2023-08-08T08:29:48.231Z,98283.91
2023-08-08T08:32:15.108Z,98284.22
2023-08-08T08:34:42.103Z,98273.13
2023-08-08T08:37:09.195Z,98270.22
2023-08-08T08:39:36.000Z,98274.09
2023-08-08T08:42:08.393Z,98275.69
2023-08-08T08:44:37.152Z,98273.44
2023-08-08T08:47:11.564Z,98262.25
2023-08-08T08:49:40.522Z,98255.31
2023-08-08T08:52:07.430Z,98249.63
2023-08-08T08:54:34.361Z,98246.16
2023-08-08T08:57:01.210Z,98241.56
2023-08-08T08:59:28.013Z,98247.91
2023-08-08T09:01:56.526Z,98242.63
2023-08-08T09:04:25.008Z,98236.44
2023-08-08T09:06:53.105Z,98244.47
2023-08-08T09:09:22.610Z,98237.91
2023-08-08T09:11:51.900Z,98249.09
2023-08-08T09:14:27.176Z,98248.28
2023-08-08T09:16:54.768Z,98242.84
2023-08-08T09:19:23.164Z,98233.16
2023-08-08T09:21:52.146Z,98239.31
2023-08-08T09:24:20.065Z,98244.50
2023-08-08T09:26:46.813Z,98243.53
2023-08-08T09:29:15.993Z,98248.88
2023-08-08T09:31:43.228Z,98246.53
2023-08-08T09:34:10.138Z,98242.50
2023-08-08T09:36:37.919Z,98226.94
2023-08-08T09:39:06.020Z,98225.94
2023-08-08T09:41:33.286Z,98234.31
2023-08-08T09:44:01.769Z,98226.97
2023-08-08T09:46:32.777Z,98232.94
2023-08-08T09:49:00.318Z,98231.63
2023-08-08T09:51:28.335Z,98227.56
2023-08-08T09:53:56.261Z,98236.88
2023-08-08T09:56:25.589Z,98243.34
2023-08-08T09:58:54.122Z,98249.84
2023-08-08T10:01:22.570Z,98257.59
2023-08-08T10:03:53.840Z,98249.78
2023-08-08T10:06:20.696Z,98251.31
2023-08-08T10:08:48.158Z,98246.84
2023-08-08T10:11:15.843Z,98246.84
2023-08-08T10:13:51.654Z,98247.22
2023-08-08T10:16:19.645Z,98248.81
2023-08-08T10:18:58.199Z,98243.25
2023-08-08T10:21:26.073Z,98252.69
2023-08-08T10:24:10.744Z,98253.41
2023-08-08T10:27:01.143Z,98256.47
2023-08-08T10:29:31.100Z,98255.19
2023-08-08T10:32:07.482Z,98255.78
2023-08-08T10:35:20.796Z,98248.88
2023-08-08T10:37:55.428Z,98268.88
2023-08-08T10:40:22.495Z,98267.50
2023-08-08T10:42:49.183Z,98268.88
2023-08-08T10:45:17.926Z,98274.56
2023-08-08T10:47:46.440Z,98265.50
2023-08-08T10:50:26.547Z,98259.34
2023-08-08T10:52:57.988Z,98255.38
2023-08-08T10:55:36.992Z,98263.44
2023-08-08T10:58:16.720Z,98259.34
2023-08-08T11:00:43.871Z,98254.19
2023-08-08T11:03:11.096Z,98260.22
2023-08-08T11:05:39.544Z,98250.28
2023-08-08T11:08:08.539Z,98255.56
2023-08-08T11:10:40.787Z,98256.91
2023-08-08T11:13:09.435Z,98241.31
2023-08-08T11:15:38.144Z,98266.38
2023-08-08T11:18:06.714Z,98264.50
2023-08-08T11:20:36.384Z,98261.06
2023-08-08T11:23:06.826Z,98259.59
2023-08-08T11:25:33.727Z,98256.16
2023-08-08T11:28:00.635Z,98247.63
2023-08-08T11:30:34.790Z,98254.16
2023-08-08T11:35:32.625Z,98261.38
2023-08-08T11:38:00.750Z,98258.09
2023-08-08T11:40:30.665Z,98249.13
2023-08-08T11:42:58.869Z,98251.44
2023-08-08T11:45:25.877Z,98245.78
2023-08-08T11:47:56.085Z,98248.75
2023-08-08T11:50:26.442Z,98242.72
2023-08-08T11:52:55.721Z,98244.41
2023-08-08T11:55:28.980Z,98250.16
2023-08-08T11:58:03.024Z,98255.63
2023-08-08T12:00:32.085Z,98261.13
2023-08-08T12:03:01.661Z,98254.56
2023-08-08T12:05:29.656Z,98245.91
2023-08-08T12:08:12.393Z,98246.53
2023-08-08T12:10:39.293Z,98248.75
2023-08-08T12:13:08.256Z,98241.56
2023-08-08T12:15:36.966Z,98235.84
2023-08-08T12:18:04.681Z,98245.75
2023-08-08T12:20:33.120Z,98240.78
2023-08-08T12:23:00.631Z,98245.50
2023-08-08T12:25:27.641Z,98242.84
2023-08-08T12:27:54.479Z,98241.53
2023-08-08T12:30:21.369Z,98232.00
2023-08-08T12:32:48.139Z,98238.53
2023-08-08T12:35:17.286Z,98233.22
2023-08-08T12:37:44.041Z,98233.19
2023-08-08T12:40:11.566Z,98230.84
2023-08-08T12:42:38.263Z,98235.53
2023-08-08T12:45:07.276Z,98240.88
2023-08-08T12:47:37.829Z,98237.69
2023-08-08T12:50:09.093Z,98231.53
2023-08-08T12:52:36.881Z,98231.03
2023-08-08T12:55:04.122Z,98234.84
2023-08-08T12:57:30.901Z,98233.81
2023-08-08T12:59:57.561Z,98239.44
2023-08-08T13:02:24.297Z,98249.59
2023-08-08T13:04:51.088Z,98252.59
2023-08-08T13:07:17.982Z,98237.59
2023-08-08T13:09:44.733Z,98240.75
2023-08-08T13:12:11.628Z,98243.09
2023-08-08T13:14:38.247Z,98246.06
2023-08-08T13:17:05.385Z,98242.50
2023-08-08T13:19:33.009Z,98240.91
2023-08-08T13:22:00.615Z,98242.34
2023-08-08T13:24:27.508Z,98239.34
2023-08-08T13:26:54.242Z,98240.16
2023-08-08T13:29:20.968Z,98233.47
2023-08-08T13:31:47.654Z,98229.69
2023-08-08T13:34:14.410Z,98235.44
2023-08-08T13:36:41.521Z,98238.97
2023-08-08T13:39:10.522Z,98241.00
2023-08-08T13:41:37.332Z,98239.63
2023-08-08T13:44:04.455Z,98242.31
2023-08-08T13:46:31.218Z,98241.47
2023-08-08T13:48:57.896Z,98244.28
2023-08-08T13:51:24.725Z,98248.25
2023-08-08T13:53:51.417Z,98242.41
2023-08-08T13:56:18.886Z,98247.72
2023-08-08T13:58:45.615Z,98242.06
2023-08-08T14:01:12.470Z,98249.59
2023-08-08T14:03:39.419Z,98238.28
2023-08-08T14:06:07.266Z,98238.44
2023-08-08T14:08:34.043Z,98244.06
2023-08-08T14:11:00.802Z,98237.91
2023-08-08T14:13:27.598Z,98240.56
2023-08-08T14:15:54.331Z,98234.25
2023-08-08T14:18:21.037Z,98246.56
2023-08-08T14:20:47.887Z,98243.75
2023-08-08T14:23:14.601Z,98250.06
2023-08-08T14:25:43.115Z,98254.56
2023-08-08T14:28:11.882Z,98265.59
2023-08-08T14:30:38.670Z,98260.66
2023-08-08T14:33:05.489Z,98261.06
2023-08-08T14:35:32.698Z,98268.78
2023-08-08T14:37:59.359Z,98262.13
2023-08-08T14:40:26.806Z,98256.41
2023-08-08T14:42:56.231Z,98256.66
2023-08-08T14:45:23.374Z,98256.91
2023-08-08T14:47:50.094Z,98255.78
2023-08-08T14:50:18.138Z,98258.34
2023-08-08T14:52:47.400Z,98261.88
2023-08-08T14:55:14.264Z,98261.03
2023-08-08T14:57:41.143Z,98261.53
2023-08-08T15:00:10.446Z,98263.19
2023-08-08T15:02:37.220Z,98264.88
2023-08-08T15:05:04.294Z,98268.38
2023-08-08T15:07:31.094Z,98267.81
2023-08-08T15:09:57.789Z,98261.31
2023-08-08T15:12:24.454Z,98273.31
2023-08-08T15:14:52.010Z,98281.78
2023-08-08T15:17:19.857Z,98282.31
2023-08-08T15:19:46.766Z,98278.81
2023-08-08T15:22:13.490Z,98282.16
2023-08-08T15:24:40.190Z,98289.16
2023-08-08T15:27:07.500Z,98284.78
2023-08-08T15:29:34.299Z,98289.31
2023-08-08T15:32:00.983Z,98281.94
2023-08-08T15:34:27.696Z,98291.44
2023-08-08T15:36:55.240Z,98288.88
2023-08-08T15:39:22.353Z,98285.22
2023-08-08T15:41:49.080Z,98283.72
2023-08-08T15:44:15.801Z,98295.03
2023-08-08T15:46:42.501Z,98278.31
2023-08-08T15:49:09.331Z,98280.75
2023-08-08T15:51:36.032Z,98268.75
2023-08-08T15:54:04.460Z,98255.91
2023-08-08T15:56:31.957Z,98254.19
2023-08-08T15:59:01.561Z,98258.88
2023-08-08T16:01:28.262Z,98262.59
2023-08-08T16:03:57.136Z,98250.81
2023-08-08T16:06:24.438Z,98256.63
2023-08-08T16:08:53.566Z,98251.44
2023-08-08T16:11:20.251Z,98250.34
2023-08-08T16:13:47.582Z,98264.34
2023-08-08T16:16:14.558Z,98263.72
2023-08-08T16:18:41.287Z,98255.09
2023-08-08T16:21:08.253Z,98250.94
2023-08-08T16:23:34.938Z,98252.13
2023-08-08T16:26:01.646Z,98246.09
2023-08-08T16:28:29.884Z,98260.38
2023-08-08T16:30:57.516Z,98260.78
2023-08-08T16:33:24.313Z,98258.00
2023-08-08T16:35:51.004Z,98256.09
2023-08-08T16:38:18.687Z,98260.66
2023-08-08T16:40:45.681Z,98261.34
2023-08-08T16:43:12.516Z,98253.63
2023-08-08T16:45:39.952Z,98259.66
2023-08-08T16:48:07.278Z,98251.50
2023-08-08T16:50:34.285Z,98250.09
2023-08-08T16:53:01.484Z,98261.47
2023-08-08T16:55:28.191Z,98259.75
2023-08-08T16:57:54.960Z,98258.72
2023-08-08T17:00:23.107Z,98260.22
2023-08-08T17:02:49.901Z,98260.81
2023-08-08T17:05:16.856Z,98262.81
2023-08-08T17:07:43.535Z,98259.44
2023-08-08T17:10:10.985Z,98255.88
2023-08-08T17:12:37.725Z,98249.00
2023-08-08T17:15:05.261Z,98259.53
2023-08-08T17:17:32.140Z,98253.03
2023-08-08T17:19:58.883Z,98257.09
2023-08-08T17:22:25.590Z,98245.22
2023-08-08T17:24:52.397Z,98252.06
2023-08-08T17:27:19.112Z,98245.41
2023-08-08T17:29:45.905Z,98241.91
2023-08-08T17:32:12.623Z,98254.44
2023-08-08T17:34:39.276Z,98258.97
2023-08-08T17:37:06.014Z,98250.63
2023-08-08T17:39:32.675Z,98243.97
2023-08-08T17:41:59.622Z,98249.28
2023-08-08T17:44:26.608Z,98246.59
2023-08-08T17:46:54.449Z,98240.75
2023-08-08T17:49:22.246Z,98240.91
2023-08-08T17:51:51.174Z,98234.56
2023-08-08T17:54:17.865Z,98231.25
2023-08-08T17:56:44.545Z,98235.06
2023-08-08T17:59:11.240Z,98244.53
2023-08-08T18:01:38.123Z,98240.91
2023-08-08T18:04:05.473Z,98243.06
2023-08-08T18:06:32.444Z,98238.88
2023-08-08T18:08:59.136Z,98232.50
2023-08-08T18:11:25.835Z,98243.00
2023-08-08T18:13:52.535Z,98252.16
2023-08-08T18:16:19.336Z,98255.31
2023-08-08T18:18:46.028Z,98245.13
2023-08-08T18:21:13.130Z,98237.97
2023-08-08T18:23:39.918Z,98248.28
2023-08-08T18:26:06.836Z,98240.75
2023-08-08T18:28:33.570Z,98249.25
2023-08-08T18:31:00.318Z,98253.53
2023-08-08T18:33:27.363Z,98245.25
2023-08-08T18:35:54.106Z,98247.06
2023-08-08T18:38:20.820Z,98249.03
2023-08-08T18:40:47.586Z,98249.00
2023-08-08T18:43:14.259Z,98248.63
2023-08-08T18:45:40.968Z,98256.28
2023-08-08T18:48:07.910Z,98246.59
2023-08-08T18:50:34.773Z,98250.75
2023-08-08T18:53:01.495Z,98248.03
2023-08-08T18:55:29.359Z,98255.34
2023-08-08T18:57:56.168Z,98248.47
2023-08-08T19:00:22.937Z,98261.81
2023-08-08T19:02:49.618Z,98261.75
2023-08-08T19:05:16.464Z,98271.72
2023-08-08T19:07:43.688Z,98267.38
2023-08-08T19:10:11.303Z,98262.13
2023-08-08T19:12:37.988Z,98272.13
2023-08-08T19:15:05.613Z,98263.13
2023-08-08T19:17:41.809Z,98264.97
2023-08-08T19:20:16.516Z,98260.56
2023-08-08T19:22:43.292Z,98255.56
2023-08-08T19:25:10.091Z,98256.59
2023-08-08T19:27:36.847Z,98256.78
2023-08-08T19:30:04.186Z,98248.63
2023-08-08T19:32:30.922Z,98250.41
2023-08-08T19:34:57.643Z,98248.03
2023-08-08T19:37:24.994Z,98253.88
2023-08-08T19:39:51.811Z,98259.69
2023-08-08T19:42:18.528Z,98252.81
2023-08-08T19:44:47.212Z,98243.31
2023-08-08T19:47:13.990Z,98246.31
2023-08-08T19:49:40.752Z,98241.66
2023-08-08T19:52:07.811Z,98241.81
2023-08-08T19:54:34.504Z,98233.97
2023-08-08T19:57:01.469Z,98228.81
2023-08-08T19:59:28.349Z,98231.25
2023-08-08T20:01:55.141Z,98218.25
2023-08-08T20:04:21.816Z,98223.88
2023-08-08T20:06:48.495Z,98233.22
2023-08-08T20:09:15.506Z,98226.38
2023-08-08T20:11:42.632Z,98228.22
2023-08-08T20:14:10.909Z,98229.50
2023-08-08T20:16:38.012Z,98226.84
2023-08-08T20:19:05.208Z,98227.69
2023-08-08T20:21:32.473Z,98222.88
2023-08-08T20:23:59.506Z,98220.91
2023-08-08T20:26:26.678Z,98227.44
2023-08-08T20:28:53.368Z,98222.13
2023-08-08T20:31:20.141Z,98219.09
2023-08-08T20:33:46.901Z,98210.66
2023-08-08T20:36:15.041Z,98214.59
2023-08-08T20:38:42.276Z,98219.09
2023-08-08T20:41:08.964Z,98223.81
2023-08-08T20:43:35.668Z,98211.81
2023-08-08T20:46:02.377Z,98212.94
2023-08-08T20:48:29.971Z,98202.84
2023-08-08T20:50:56.664Z,98202.84
2023-08-08T20:53:23.282Z,98209.16
2023-08-08T20:55:50.059Z,98203.31
2023-08-08T20:58:16.949Z,98212.09
2023-08-08T21:00:43.734Z,98214.31
2023-08-08T21:03:10.441Z,98205.19
2023-08-08T21:05:37.140Z,98206.16
2023-08-08T21:08:04.733Z,98198.19
2023-08-08T21:10:31.684Z,98197.22
2023-08-08T21:12:58.701Z,98192.56
2023-08-08T21:15:25.344Z,98192.56
2023-08-08T21:17:52.168Z,98198.59
2023-08-08T21:20:19.263Z,98191.44
2023-08-08T21:22:46.554Z,98190.59
2023-08-08T21:25:14.644Z,98189.91
2023-08-08T21:27:41.846Z,98187.25
2023-08-08T21:30:09.259Z,98186.78
2023-08-08T21:32:36.865Z,98191.81
2023-08-08T21:35:04.388Z,98197.59
2023-08-08T21:37:31.265Z,98198.88
2023-08-08T21:39:58.114Z,98197.41
2023-08-08T21:42:25.167Z,98196.28
2023-08-08T21:44:57.514Z,98200.25
2023-08-08T21:47:24.305Z,98201.31
2023-08-08T21:49:51.129Z,98199.63
2023-08-08T21:52:17.770Z,98194.28
2023-08-08T21:54:44.477Z,98191.50
2023-08-08T21:57:11.192Z,98188.47
2023-08-08T21:59:38.091Z,98179.97
2023-08-08T22:02:05.377Z,98177.84
2023-08-08T22:04:33.187Z,98177.31
2023-08-08T22:07:01.031Z,98181.94
2023-08-08T22:09:27.999Z,98176.44
2023-08-08T22:11:55.176Z,98173.66
2023-08-08T22:14:21.918Z,98166.97
2023-08-08T22:16:49.170Z,98172.28
2023-08-08T22:19:16.051Z,98171.28
2023-08-08T22:21:42.693Z,98169.47
2023-08-08T22:24:09.416Z,98162.19
2023-08-08T22:26:36.117Z,98154.50
2023-08-08T22:29:02.823Z,98157.94
2023-08-08T22:31:29.592Z,98144.63
2023-08-08T22:33:56.228Z,98141.59
2023-08-08T22:36:22.896Z,98133.47
2023-08-08T22:38:49.657Z,98141.13
2023-08-08T22:41:17.673Z,98135.13
2023-08-08T22:43:45.688Z,98132.63
2023-08-08T22:46:12.443Z,98133.94
2023-08-08T22:48:39.175Z,98133.69
2023-08-08T22:51:05.815Z,98124.59
2023-08-08T22:53:32.581Z,98120.94
2023-08-08T22:55:59.228Z,98124.59
2023-08-08T22:58:26.104Z,98118.44
2023-08-08T23:00:52.757Z,98118.56
2023-08-08T23:03:19.468Z,98119.28
2023-08-08T23:05:46.160Z,98113.94
2023-08-08T23:08:13.007Z,98111.44
2023-08-08T23:10:39.770Z,98105.28
2023-08-08T23:13:06.440Z,98095.47
2023-08-08T23:15:33.216Z,98088.19
2023-08-08T23:17:59.911Z,98085.69
2023-08-08T23:20:26.857Z,98076.44
2023-08-08T23:22:53.528Z,98073.28
2023-08-08T23:25:24.002Z,98081.09
2023-08-08T23:27:50.834Z,98083.78
2023-08-08T23:30:17.569Z,98083.63
2023-08-08T23:32:46.786Z,98089.78
2023-08-08T23:35:21.024Z,98081.09
2023-08-08T23:37:47.667Z,98074.78
2023-08-08T23:40:16.481Z,98067.22
2023-08-08T23:42:43.236Z,98066.22
2023-08-08T23:45:12.059Z,98066.63
2023-08-08T23:47:39.850Z,98062.44
2023-08-08T23:50:07.560Z,98065.09
2023-08-08T23:52:34.219Z,98064.97
2023-08-08T23:55:01.146Z,98065.47
2023-08-08T23:57:27.767Z,98070.47
2023-08-08T23:59:54.512Z,98059.53
